createdAt,value
2022-11-02T00:00:46.836Z,21.33
2022-11-02T00:03:29.550Z,20.27
2022-11-02T00:05:56.564Z,22.90
2022-11-02T00:08:23.329Z,21.92
2022-11-02T00:10:50.312Z,26.73
2022-11-02T00:13:17.078Z,22.05
2022-11-02T00:15:44.067Z,18.85
2022-11-02T00:18:12.500Z,19.05
2022-11-02T00:20:41.982Z,23.75
2022-11-02T00:25:44.126Z,21.02
2022-11-02T00:28:11.237Z,19.23
2022-11-02T00:30:38.539Z,18.02
2022-11-02T00:33:05.627Z,23.75
2022-11-02T00:35:34.244Z,19.20
2022-11-02T00:38:01.112Z,24.25
2022-11-02T00:40:28.525Z,20.50
2022-11-02T00:42:55.351Z,19.80
2022-11-02T00:45:23.018Z,22.10
2022-11-02T00:47:50.359Z,18.88
2022-11-02T00:50:17.616Z,18.83
2022-11-02T00:52:44.379Z,18.40
2022-11-02T00:55:12.066Z,20.20
2022-11-02T00:57:40.343Z,19.80
2022-11-02T01:00:10.145Z,20.58
2022-11-02T01:02:38.259Z,18.58
2022-11-02T01:05:06.589Z,20.15
2022-11-02T01:07:33.831Z,20.70
2022-11-02T01:10:00.860Z,22.05
2022-11-02T01:12:27.700Z,21.00
2022-11-02T01:14:54.623Z,21.10
2022-11-02T01:17:21.541Z,21.55
2022-11-02T01:19:50.395Z,25.88
2022-11-02T01:22:17.161Z,22.73
2022-11-02T01:24:44.073Z,26.67
2022-11-02T01:27:10.864Z,21.17
2022-11-02T01:29:37.844Z,19.15
2022-11-02T01:32:04.863Z,23.38
2022-11-02T01:34:32.045Z,22.00
2022-11-02T01:36:59.094Z,20.35
2022-11-02T01:39:26.041Z,19.45
2022-11-02T01:41:54.073Z,22.63
2022-11-02T01:44:31.314Z,22.33
2022-11-02T01:47:08.995Z,21.40
2022-11-02T01:49:39.303Z,20.27
2022-11-02T01:52:20.097Z,19.75
2022-11-02T01:54:59.267Z,21.27
2022-11-02T01:57:28.732Z,22.98
2022-11-02T02:00:05.597Z,23.25
2022-11-02T02:02:35.282Z,22.10
2022-11-02T02:05:07.782Z,18.92
2022-11-02T02:07:37.317Z,19.63
2022-11-02T02:10:05.903Z,20.38
2022-11-02T02:12:34.690Z,24.27
2022-11-02T02:15:01.948Z,19.02
2022-11-02T02:17:50.188Z,18.58
2022-11-02T02:20:46.713Z,25.52
2022-11-02T02:23:19.246Z,20.75
2022-11-02T02:26:07.515Z,21.00
2022-11-02T02:28:41.432Z,19.90
2022-11-02T02:31:16.540Z,20.50
2022-11-02T02:34:20.914Z,16.10
2022-11-02T02:36:57.967Z,20.88
2022-11-02T02:39:27.433Z,19.25
2022-11-02T02:42:06.608Z,17.48
2022-11-02T02:44:38.340Z,17.05
2022-11-02T02:47:17.825Z,17.52
2022-11-02T02:52:19.838Z,19.20
2022-11-02T02:57:18.622Z,20.40
2022-11-02T02:59:48.673Z,25.13
2022-11-02T03:02:24.712Z,21.55
2022-11-02T03:04:51.541Z,20.23
2022-11-02T03:07:23.756Z,19.48
2022-11-02T03:10:11.988Z,21.88
2022-11-02T03:12:54.253Z,23.17
2022-11-02T03:15:48.536Z,19.98
2022-11-02T03:18:25.192Z,22.75
2022-11-02T03:21:10.560Z,22.27
2022-11-02T03:23:59.955Z,19.80
2022-11-02T03:29:12.753Z,29.48
2022-11-02T03:31:51.961Z,25.27
2022-11-02T03:34:39.135Z,26.33
2022-11-02T03:37:30.358Z,27.20
2022-11-02T03:40:26.079Z,30.40
2022-11-02T03:42:54.182Z,30.95
2022-11-02T03:45:29.546Z,32.15
2022-11-02T03:48:02.269Z,35.80
2022-11-02T03:50:29.771Z,30.15
2022-11-02T03:53:03.829Z,30.38
2022-11-02T03:55:38.099Z,27.92
2022-11-02T03:58:05.154Z,31.63
2022-11-02T04:00:36.202Z,31.48
2022-11-02T04:03:07.079Z,23.52
2022-11-02T04:05:35.917Z,25.83
2022-11-02T04:08:23.098Z,26.92
2022-11-02T04:11:10.216Z,27.23
2022-11-02T04:13:56.143Z,29.95
2022-11-02T04:16:27.579Z,28.52
2022-11-02T04:19:13.582Z,24.30
2022-11-02T04:21:41.045Z,25.33
2022-11-02T04:24:27.344Z,25.08
2022-11-02T04:26:54.339Z,28.23
2022-11-02T04:29:21.064Z,26.70
2022-11-02T04:31:48.026Z,24.77
2022-11-02T04:34:14.742Z,31.55
2022-11-02T04:36:41.786Z,26.08
2022-11-02T04:39:08.572Z,29.10
2022-11-02T04:41:44.712Z,28.23
2022-11-02T04:44:14.434Z,26.40
2022-11-02T04:46:43.274Z,24.75
2022-11-02T04:49:11.391Z,26.73
2022-11-02T04:51:41.109Z,26.07
2022-11-02T04:54:10.123Z,25.05
2022-11-02T04:56:37.086Z,35.22
2022-11-02T04:59:03.952Z,35.47
2022-11-02T05:01:31.120Z,34.63
2022-11-02T05:03:58.093Z,31.63
2022-11-02T05:06:25.501Z,29.33
2022-11-02T05:08:52.541Z,29.60
2022-11-02T05:11:19.686Z,34.35
2022-11-02T05:13:46.692Z,27.05
2022-11-02T05:16:15.993Z,36.17
2022-11-02T05:18:43.561Z,33.92
2022-11-02T05:21:12.394Z,33.17
2022-11-02T05:23:39.693Z,34.70
2022-11-02T05:26:11.902Z,32.03
2022-11-02T05:28:38.803Z,32.95
2022-11-02T05:31:06.150Z,30.10
2022-11-02T05:33:33.072Z,35.65
2022-11-02T05:36:00.427Z,37.90
2022-11-02T05:38:28.358Z,31.55
2022-11-02T05:40:57.825Z,33.20
2022-11-02T05:43:25.098Z,33.10
2022-11-02T05:45:57.338Z,28.50
2022-11-02T05:48:25.830Z,34.55
2022-11-02T05:51:00.519Z,26.73
2022-11-02T05:53:31.768Z,26.73
2022-11-02T05:56:03.063Z,31.02
2022-11-02T05:58:29.920Z,27.40
2022-11-02T06:01:01.705Z,29.38
2022-11-02T06:03:29.492Z,26.73
2022-11-02T06:06:01.131Z,29.15
2022-11-02T06:08:28.171Z,26.05
2022-11-02T06:10:55.194Z,26.88
2022-11-02T06:13:21.958Z,23.95
2022-11-02T06:15:48.934Z,23.50
2022-11-02T06:18:15.666Z,28.67
2022-11-02T06:20:42.853Z,28.35
2022-11-02T06:23:09.715Z,27.05
2022-11-02T06:25:36.640Z,26.77
2022-11-02T06:28:03.396Z,29.77
2022-11-02T06:30:30.361Z,30.55
2022-11-02T06:32:58.690Z,31.63
2022-11-02T06:35:28.432Z,27.83
2022-11-02T06:37:55.199Z,31.63
2022-11-02T06:40:25.654Z,29.15
2022-11-02T06:43:15.565Z,24.35
2022-11-02T06:45:43.295Z,26.67
2022-11-02T06:48:10.128Z,27.15
2022-11-02T06:50:37.117Z,24.15
2022-11-02T06:53:04.441Z,26.83
2022-11-02T06:55:31.674Z,27.80
2022-11-02T06:57:58.420Z,31.17
2022-11-02T07:00:25.542Z,30.55
2022-11-02T07:03:06.986Z,26.52
2022-11-02T07:05:34.558Z,28.25
2022-11-02T07:08:01.384Z,32.35
2022-11-02T07:10:28.815Z,29.92
2022-11-02T07:12:57.231Z,31.60
2022-11-02T07:15:25.956Z,28.77
2022-11-02T07:17:53.498Z,28.73
2022-11-02T07:20:20.988Z,27.92
2022-11-02T07:22:59.875Z,24.67
2022-11-02T07:25:31.109Z,26.52
2022-11-02T07:28:00.003Z,24.50
2022-11-02T07:30:29.198Z,27.73
2022-11-02T07:32:56.004Z,31.45
2022-11-02T07:35:22.997Z,25.30
2022-11-02T07:37:57.847Z,23.55
2022-11-02T07:40:24.903Z,23.23
2022-11-02T07:42:54.010Z,24.60
2022-11-02T07:47:49.231Z,18.65
2022-11-02T07:50:19.702Z,15.05
2022-11-02T07:52:54.614Z,15.95
2022-11-02T07:55:24.063Z,17.50
2022-11-02T08:00:28.081Z,16.55
2022-11-02T08:02:56.109Z,15.68
2022-11-02T08:05:23.547Z,18.27
2022-11-02T08:07:58.322Z,15.82
2022-11-02T08:10:25.859Z,20.38
2022-11-02T08:12:52.927Z,20.48
2022-11-02T08:15:19.896Z,20.48
2022-11-02T08:17:47.071Z,20.42
2022-11-02T08:20:14.339Z,21.48
2022-11-02T08:22:41.482Z,21.02
2022-11-02T08:25:08.741Z,15.88
2022-11-02T08:27:35.864Z,17.10
2022-11-02T08:30:02.608Z,21.13
2022-11-02T08:32:29.779Z,20.63
2022-11-02T08:34:56.520Z,19.02
2022-11-02T08:37:23.561Z,15.40
2022-11-02T08:39:50.413Z,18.88
2022-11-02T08:42:17.615Z,22.83
2022-11-02T08:44:44.349Z,13.57
2022-11-02T08:47:11.410Z,16.17
2022-11-02T08:49:38.160Z,15.50
2022-11-02T08:52:05.363Z,13.65
2022-11-02T08:54:32.185Z,14.10
2022-11-02T08:56:59.304Z,13.43
2022-11-02T08:59:26.064Z,12.48
2022-11-02T09:01:53.213Z,15.88
2022-11-02T09:04:20.148Z,14.90
2022-11-02T09:06:47.240Z,15.52
2022-11-02T09:09:13.948Z,16.15
2022-11-02T09:11:40.993Z,14.10
2022-11-02T09:14:08.019Z,15.18
2022-11-02T09:16:40.214Z,14.52
2022-11-02T09:19:08.038Z,11.68
2022-11-02T09:21:35.126Z,15.55
2022-11-02T09:24:01.881Z,13.00
2022-11-02T09:26:29.002Z,16.95
2022-11-02T09:28:55.719Z,9.82
2022-11-02T09:31:22.736Z,9.57
2022-11-02T09:33:49.481Z,11.02
2022-11-02T09:36:16.558Z,12.07
2022-11-02T09:38:43.358Z,14.10
2022-11-02T09:41:26.814Z,11.27
2022-11-02T09:44:11.250Z,11.95
2022-11-02T09:46:42.365Z,12.05
2022-11-02T09:49:16.453Z,9.65
2022-11-02T09:51:51.238Z,10.32
2022-11-02T09:54:30.811Z,9.50
2022-11-02T09:57:13.136Z,16.33
2022-11-02T09:59:41.351Z,13.23
2022-11-02T10:02:41.599Z,13.95
2022-11-02T10:05:11.188Z,8.93
2022-11-02T10:08:15.837Z,10.00
2022-11-02T10:11:10.280Z,11.70
2022-11-02T10:13:37.297Z,11.07
2022-11-02T10:16:12.783Z,7.68
2022-11-02T10:18:41.925Z,10.45
2022-11-02T10:21:21.991Z,8.65
2022-11-02T10:23:55.006Z,9.65
2022-11-02T10:26:32.018Z,9.43
2022-11-02T10:29:03.445Z,9.50
2022-11-02T10:31:34.538Z,9.60
2022-11-02T10:34:13.738Z,8.02
2022-11-02T10:39:42.517Z,9.30
2022-11-02T10:42:55.515Z,10.95
2022-11-02T10:45:44.066Z,11.38
2022-11-02T10:48:36.736Z,8.98
2022-11-02T10:51:15.460Z,7.88
2022-11-02T10:53:45.138Z,10.68
2022-11-02T10:56:12.427Z,11.40
2022-11-02T10:58:45.314Z,10.65
2022-11-02T11:01:13.312Z,10.52
2022-11-02T11:03:52.749Z,10.05
2022-11-02T11:06:20.620Z,7.82
2022-11-02T11:08:50.030Z,8.67
2022-11-02T11:11:26.477Z,10.45
2022-11-02T11:16:56.187Z,7.47
2022-11-02T11:19:39.311Z,10.18
2022-11-02T11:22:25.671Z,8.27
2022-11-02T11:24:52.957Z,9.07
2022-11-02T11:27:21.987Z,9.27
2022-11-02T11:29:54.779Z,7.25
2022-11-02T11:32:30.253Z,7.90
2022-11-02T11:35:07.960Z,10.60
2022-11-02T11:37:34.796Z,10.45
2022-11-02T11:40:16.562Z,10.77
2022-11-02T11:42:43.732Z,7.90
2022-11-02T11:45:26.382Z,9.10
2022-11-02T11:47:57.204Z,10.45
2022-11-02T11:50:26.077Z,11.32
2022-11-02T11:53:19.586Z,9.05
2022-11-02T11:55:55.203Z,10.30
2022-11-02T11:58:28.951Z,9.93
2022-11-02T12:01:07.525Z,9.15
2022-11-02T12:03:57.034Z,8.80
2022-11-02T12:06:35.002Z,12.93
2022-11-02T12:09:17.717Z,9.07
2022-11-02T12:11:56.477Z,9.23
2022-11-02T12:14:41.912Z,10.93
2022-11-02T12:17:18.121Z,13.35
2022-11-02T12:19:50.719Z,17.40
2022-11-02T12:23:06.742Z,15.55
2022-11-02T12:25:48.811Z,10.73
2022-11-02T12:28:57.786Z,12.23
2022-11-02T12:31:37.417Z,15.13
2022-11-02T12:34:22.344Z,16.73
2022-11-02T12:37:35.734Z,11.27
2022-11-02T12:40:16.994Z,15.13
2022-11-02T12:42:53.671Z,14.85
2022-11-02T12:45:37.480Z,18.05
2022-11-02T12:48:05.832Z,15.77
2022-11-02T12:51:09.961Z,17.60
2022-11-02T12:53:47.098Z,24.58
2022-11-02T12:56:25.333Z,26.92
2022-11-02T12:58:52.596Z,26.05
2022-11-02T13:01:26.030Z,28.50
2022-11-02T13:04:14.313Z,25.20
2022-11-02T13:06:50.104Z,26.75
2022-11-02T13:09:25.797Z,18.45
2022-11-02T13:12:09.478Z,16.95
2022-11-02T13:14:49.116Z,20.38
2022-11-02T13:17:18.804Z,16.88
2022-11-02T13:19:56.044Z,16.85
2022-11-02T13:22:32.862Z,18.33
2022-11-02T13:25:22.185Z,14.07
2022-11-02T13:28:01.254Z,18.63
2022-11-02T13:30:32.777Z,27.05
2022-11-02T13:32:59.765Z,11.02
2022-11-02T13:35:40.994Z,14.32
2022-11-02T13:38:46.669Z,11.55
2022-11-02T13:41:20.219Z,21.83
2022-11-02T13:44:24.870Z,19.25
2022-11-02T13:47:03.473Z,14.98
2022-11-02T13:49:37.369Z,16.40
2022-11-02T13:52:44.069Z,15.20
2022-11-02T13:55:19.492Z,16.90
2022-11-02T13:57:52.611Z,15.82
2022-11-02T14:00:22.817Z,13.70
2022-11-02T14:02:54.517Z,13.75
2022-11-02T14:05:30.525Z,15.93
2022-11-02T14:08:35.658Z,22.95
2022-11-02T14:11:10.832Z,16.50
2022-11-02T14:13:55.858Z,15.65
2022-11-02T14:16:51.194Z,18.63
2022-11-02T14:19:19.349Z,16.35
2022-11-02T14:21:52.813Z,72.22
2022-11-02T14:24:34.488Z,19.65
2022-11-02T14:27:13.851Z,16.38
2022-11-02T14:29:46.645Z,18.02
2022-11-02T14:32:34.751Z,16.92
2022-11-02T14:35:13.682Z,21.80
2022-11-02T14:37:59.516Z,21.05
2022-11-02T14:40:26.573Z,17.98
2022-11-02T14:42:59.686Z,14.20
2022-11-02T14:45:39.296Z,19.55
2022-11-02T14:48:11.259Z,17.58
2022-11-02T14:50:38.107Z,16.45
2022-11-02T14:53:08.947Z,17.08
2022-11-02T14:55:40.383Z,21.60
2022-11-02T14:58:16.726Z,46.65
2022-11-02T15:00:49.836Z,65.90
2022-11-02T15:03:26.293Z,63.65
2022-11-02T15:06:20.133Z,100.38
2022-11-02T15:09:01.948Z,66.70
2022-11-02T15:11:48.704Z,125.07
2022-11-02T15:14:37.987Z,116.97
2022-11-02T15:17:10.732Z,88.70
2022-11-02T15:19:40.623Z,102.18
2022-11-02T15:22:29.028Z,124.53
2022-11-02T15:25:00.374Z,116.38
2022-11-02T15:27:28.854Z,150.25
2022-11-02T15:29:56.730Z,60.95
2022-11-02T15:32:26.965Z,55.72
2022-11-02T15:34:55.727Z,58.17
2022-11-02T15:37:28.929Z,79.68
2022-11-02T15:40:00.820Z,123.65
2022-11-02T15:42:58.196Z,151.30
2022-11-02T15:45:56.950Z,90.10
2022-11-02T15:48:39.342Z,109.80
2022-11-02T15:51:09.341Z,124.20
2022-11-02T15:53:57.395Z,149.50
2022-11-02T15:56:24.448Z,116.63
2022-11-02T15:59:12.596Z,113.50
2022-11-02T16:01:40.327Z,111.00
2022-11-02T16:04:10.819Z,105.80
2022-11-02T16:06:37.800Z,91.78
2022-11-02T16:09:34.301Z,77.47
2022-11-02T16:12:23.917Z,39.67
2022-11-02T16:14:57.704Z,70.03
2022-11-02T16:17:27.849Z,91.78
2022-11-02T16:20:11.523Z,118.70
2022-11-02T16:22:39.388Z,136.25
2022-11-02T16:25:19.672Z,128.23
2022-11-02T16:27:47.152Z,113.57
2022-11-02T16:30:22.214Z,120.80
2022-11-02T16:32:58.733Z,110.15
2022-11-02T16:35:26.513Z,129.38
2022-11-02T16:37:53.629Z,126.25
2022-11-02T16:40:21.259Z,135.95
2022-11-02T16:42:53.451Z,158.60
2022-11-02T16:45:40.257Z,164.10
2022-11-02T16:48:18.149Z,189.90
2022-11-02T16:51:15.034Z,171.57
2022-11-02T16:53:42.380Z,159.25
2022-11-02T16:56:14.458Z,162.98
2022-11-02T16:58:49.728Z,152.68
2022-11-02T17:01:23.279Z,204.38
2022-11-02T17:03:50.683Z,189.98
2022-11-02T17:06:18.955Z,166.18
2022-11-02T17:08:53.089Z,170.05
2022-11-02T17:11:20.400Z,199.70
2022-11-02T17:13:56.868Z,307.05
2022-11-02T17:16:23.922Z,212.73
2022-11-02T17:18:50.716Z,233.13
2022-11-02T17:21:25.065Z,181.25
2022-11-02T17:23:52.214Z,169.57
2022-11-02T17:26:22.134Z,199.20
2022-11-02T17:28:54.637Z,190.98
2022-11-02T17:31:28.455Z,158.70
2022-11-02T17:33:59.320Z,151.25
2022-11-02T17:36:27.143Z,176.65
2022-11-02T17:38:55.581Z,166.95
2022-11-02T17:41:43.860Z,149.02
2022-11-02T17:44:17.201Z,151.20
2022-11-02T17:46:46.051Z,185.43
2022-11-02T17:49:13.221Z,163.43
2022-11-02T17:51:40.817Z,157.30
2022-11-02T17:54:12.145Z,156.50
2022-11-02T17:56:39.530Z,169.90
2022-11-02T17:59:06.287Z,128.77
2022-11-02T18:01:33.519Z,142.83
2022-11-02T18:04:00.432Z,139.23
2022-11-02T18:06:29.762Z,140.50
2022-11-02T18:09:11.797Z,140.25
2022-11-02T18:11:38.835Z,124.90
2022-11-02T18:14:05.624Z,133.80
2022-11-02T18:16:32.937Z,130.65
2022-11-02T18:18:59.677Z,119.63
2022-11-02T18:21:26.702Z,112.55
2022-11-02T18:23:53.473Z,115.40
2022-11-02T18:26:20.568Z,128.57
2022-11-02T18:28:47.309Z,119.37
2022-11-02T18:31:14.385Z,116.10
2022-11-02T18:33:42.839Z,102.70
2022-11-02T18:36:10.887Z,111.00
2022-11-02T18:38:38.038Z,98.20
2022-11-02T18:41:27.783Z,92.97
2022-11-02T18:44:02.202Z,88.23
2022-11-02T18:46:31.863Z,94.00
2022-11-02T18:48:58.692Z,97.37
2022-11-02T18:51:26.249Z,109.03
2022-11-02T18:54:01.392Z,90.53
2022-11-02T18:56:29.413Z,84.97
2022-11-02T18:58:57.138Z,96.13
2022-11-02T19:01:25.365Z,92.20
2022-11-02T19:03:57.473Z,105.83
2022-11-02T19:06:43.994Z,172.40
2022-11-02T19:09:18.575Z,106.33
2022-11-02T19:11:51.687Z,107.33
2022-11-02T19:14:19.925Z,100.18
2022-11-02T19:16:47.338Z,83.38
2022-11-02T19:19:14.114Z,106.23
2022-11-02T19:21:41.216Z,89.87
2022-11-02T19:24:08.392Z,76.37
2022-11-02T19:26:36.510Z,76.50
2022-11-02T19:29:06.343Z,85.47
2022-11-02T19:31:35.353Z,88.20
2022-11-02T19:34:02.339Z,79.23
2022-11-02T19:36:29.430Z,74.20
2022-11-02T19:38:56.300Z,80.60
2022-11-02T19:41:23.953Z,91.23
2022-11-02T19:43:50.966Z,77.00
2022-11-02T19:46:20.893Z,75.93
2022-11-02T19:48:47.733Z,82.63
2022-11-02T19:51:20.237Z,74.33
2022-11-02T19:53:52.376Z,72.90
2022-11-02T19:56:20.827Z,69.67
2022-11-02T19:58:49.816Z,79.53
2022-11-02T20:03:54.856Z,81.53
2022-11-02T20:06:26.328Z,87.53
2022-11-02T20:08:55.808Z,93.03
2022-11-02T20:11:24.059Z,92.90
2022-11-02T20:13:52.209Z,82.68
2022-11-02T20:16:19.882Z,63.07
2022-11-02T20:18:48.801Z,67.17
2022-11-02T20:23:47.788Z,47.03
2022-11-02T20:26:20.995Z,49.87
2022-11-02T20:28:48.619Z,50.37
2022-11-02T20:31:21.501Z,40.10
2022-11-02T20:33:48.863Z,47.25
2022-11-02T20:36:16.358Z,43.17
2022-11-02T20:38:43.556Z,49.97
2022-11-02T20:41:17.130Z,45.67
2022-11-02T20:43:46.121Z,42.92
2022-11-02T20:49:13.703Z,44.63
2022-11-02T20:51:49.274Z,47.80
2022-11-02T20:54:18.363Z,45.47
2022-11-02T20:56:45.493Z,43.45
2022-11-02T20:59:12.242Z,39.47
2022-11-02T21:01:39.370Z,46.35
2022-11-02T21:04:06.345Z,38.60
2022-11-02T21:06:33.399Z,35.13
2022-11-02T21:09:00.694Z,35.58
2022-11-02T21:11:46.424Z,42.03
2022-11-02T21:14:13.174Z,33.58
2022-11-02T21:16:40.223Z,36.05
2022-11-02T21:19:07.635Z,33.63
2022-11-02T21:21:34.677Z,37.45
2022-11-02T21:24:01.517Z,36.60
2022-11-02T21:26:28.507Z,37.28
2022-11-02T21:28:55.250Z,34.38
2022-11-02T21:31:22.420Z,34.53
2022-11-02T21:33:49.998Z,35.42
2022-11-02T21:36:17.925Z,31.38
2022-11-02T21:38:45.540Z,34.92
2022-11-02T21:41:19.784Z,30.95
2022-11-02T21:43:46.630Z,33.90
2022-11-02T21:46:13.697Z,37.80
2022-11-02T21:48:40.496Z,39.67
2022-11-02T21:51:13.014Z,35.67
2022-11-02T21:53:42.753Z,40.10
2022-11-02T21:56:11.218Z,40.60
2022-11-02T21:58:43.048Z,44.30
2022-11-02T22:01:34.722Z,43.65
2022-11-02T22:04:02.308Z,37.97
2022-11-02T22:06:31.566Z,34.60
2022-11-02T22:09:02.160Z,29.77
2022-11-02T22:11:29.723Z,31.15
2022-11-02T22:13:58.487Z,31.90
2022-11-02T22:16:28.278Z,33.15
2022-11-02T22:19:00.492Z,35.20
2022-11-02T22:21:30.523Z,42.17
2022-11-02T22:23:57.806Z,47.08
2022-11-02T22:26:27.271Z,45.47
2022-11-02T22:28:57.202Z,47.92
2022-11-02T22:31:27.179Z,44.80
2022-11-02T22:33:56.650Z,38.08
2022-11-02T22:36:26.078Z,37.80
2022-11-02T22:38:54.456Z,34.72
2022-11-02T22:41:41.142Z,33.28
2022-11-02T22:44:19.153Z,33.63
2022-11-02T22:46:49.655Z,32.20
2022-11-02T22:49:18.576Z,31.35
2022-11-02T22:51:48.252Z,29.95
2022-11-02T22:56:44.691Z,31.58
2022-11-02T22:59:11.503Z,30.45
2022-11-02T23:01:39.554Z,31.23
2022-11-02T23:04:07.008Z,32.63
2022-11-02T23:06:34.721Z,33.00
2022-11-02T23:09:02.286Z,34.20
2022-11-02T23:11:36.364Z,31.15
2022-11-02T23:14:06.051Z,34.15
2022-11-02T23:16:34.437Z,30.15
2022-11-02T23:19:29.212Z,28.42
2022-11-02T23:22:21.499Z,25.40
2022-11-02T23:25:11.283Z,27.25
2022-11-02T23:28:14.898Z,32.90
2022-11-02T23:31:01.104Z,29.58
2022-11-02T23:33:31.235Z,33.53
2022-11-02T23:36:15.434Z,30.17
2022-11-02T23:39:03.179Z,33.35
2022-11-02T23:41:32.239Z,40.63
2022-11-02T23:46:46.172Z,28.20
2022-11-02T23:49:15.519Z,23.75
2022-11-02T23:52:00.882Z,28.00
2022-11-02T23:54:46.829Z,26.77
2022-11-02T23:57:13.682Z,28.35
2022-11-02T23:59:40.798Z,28.65
